Time;durP1;ratioP1;P1;durP2;ratioP2;P2;SDS_P1;SDS_P2;PMS_P1;PMS_P2;Temp;Humidity;BMP_temperature;BMP_pressure;BME280_temperature;BME280_humidity;BME280_pressure;Samples;Min_cycle;Max_cycle;Signal;HPM_P1;HPM_P2
2023/04/02 00:01:01;;;;;;;1.02;0.85;;;;;;;;;;4673888;28;10000050;-72
2023/04/02 00:03:43;;;;;;;0.80;0.80;;;;;;;;;;5027002;28;20091;-72
2023/04/02 00:06:34;;;;;;;0.65;0.63;;;;;;;;;;5025011;28;20531;-73
2023/04/02 00:09:24;;;;;;;0.90;0.60;;;;;;;;;;5021756;28;20040;-73
2023/04/02 00:11:55;;;;;;;0.60;0.60;;;;;;;;;;5020003;28;20091;-73
2023/04/02 00:14:24;;;;;;;0.63;0.63;;;;;;;;;;5024800;28;20041;-73
2023/04/02 00:16:51;;;;;;;4.70;0.93;;;;;;;;;;5024349;28;20040;-73
2023/04/02 00:19:25;;;;;;;1.15;1.00;;;;;;;;;;5031242;28;20772;-73
2023/04/02 00:21:56;;;;;;;1.70;1.60;;;;;;;;;;5024321;28;20140;-73
2023/04/02 00:24:26;;;;;;;2.85;1.30;;;;;;;;;;5026745;28;20486;-73
2023/04/02 00:26:53;;;;;;;2.42;1.50;;;;;;;;;;5029053;28;20037;-74
2023/04/02 00:29:25;;;;;;;2.40;1.42;;;;;;;;;;5025454;28;20029;-73
2023/04/02 00:31:53;;;;;;;1.70;1.60;;;;;;;;;;5027728;28;20033;-74
2023/04/02 00:34:31;;;;;;;2.17;1.40;;;;;;;;;;5029764;28;20582;-74
2023/04/02 00:37:03;;;;;;;1.40;1.30;;;;;;;;;;5027549;28;20065;-74
2023/04/02 00:39:37;;;;;;;1.40;1.30;;;;;;;;;;5027564;28;20033;-74
2023/04/02 00:42:07;;;;;;;1.48;1.20;;;;;;;;;;5027240;28;20037;-74
2023/04/02 00:44:46;;;;;;;1.70;1.17;;;;;;;;;;5028463;28;20061;-74
2023/04/02 00:47:21;;;;;;;1.17;1.13;;;;;;;;;;5022967;28;20033;-74
2023/04/02 00:49:57;;;;;;;1.30;1.20;;;;;;;;;;5023601;28;20025;-73
2023/04/02 00:52:28;;;;;;;1.17;1.10;;;;;;;;;;5023378;28;20041;-73
2023/04/02 00:55:09;;;;;;;3.22;1.35;;;;;;;;;;5025280;28;20054;-73
2023/04/02 00:57:43;;;;;;;1.50;1.40;;;;;;;;;;5024049;28;20099;-72
2023/04/02 01:00:29;;;;;;;4.25;1.70;;;;;;;;;;5025574;28;20095;-73
2023/04/02 01:03:16;;;;;;;1.55;1.45;;;;;;;;;;5023648;28;20486;-72
2023/04/02 01:05:48;;;;;;;2.00;1.75;;;;;;;;;;5019031;28;20018;-72
2023/04/02 01:08:26;;;;;;;1.58;1.38;;;;;;;;;;5013886;28;20037;-72
2023/04/02 01:11:07;;;;;;;2.47;2.17;;;;;;;;;;5027634;28;20034;-73
2023/04/02 01:13:49;;;;;;;3.72;2.20;;;;;;;;;;5027004;28;20837;-73
2023/04/02 01:16:29;;;;;;;2.08;1.85;;;;;;;;;;5021280;28;20038;-74
2023/04/02 01:19:20;;;;;;;2.25;2.05;;;;;;;;;;5019378;28;20022;-74
2023/04/02 01:21:56;;;;;;;2.65;1.85;;;;;;;;;;5021270;28;20531;-73
2023/04/02 01:24:25;;;;;;;3.05;2.00;;;;;;;;;;5024391;28;20430;-74
2023/04/02 01:26:56;;;;;;;2.25;2.05;;;;;;;;;;5029170;28;20033;-74
2023/04/02 01:29:27;;;;;;;2.20;2.00;;;;;;;;;;5028281;28;20037;-74
2023/04/02 01:31:59;;;;;;;2.50;2.22;;;;;;;;;;5029154;28;20091;-74
2023/04/02 01:34:28;;;;;;;2.30;2.10;;;;;;;;;;5012058;28;20065;-74
2023/04/02 01:37:12;;;;;;;2.25;2.00;;;;;;;;;;5023330;28;20477;-74
2023/04/02 01:40:01;;;;;;;2.45;2.25;;;;;;;;;;5025758;28;20048;-74
2023/04/02 01:43:03;;;;;;;5.15;2.20;;;;;;;;;;5031560;28;20533;-74
2023/04/02 01:45:34;;;;;;;2.45;2.20;;;;;;;;;;4988868;28;20041;-74
2023/04/02 01:48:05;;;;;;;2.60;2.20;;;;;;;;;;5028900;28;20029;-74
2023/04/02 01:50:40;;;;;;;3.63;2.50;;;;;;;;;;5025592;28;20056;-74
2023/04/02 01:53:11;;;;;;;2.25;2.05;;;;;;;;;;5029332;28;20129;-74
2023/04/02 01:55:46;;;;;;;2.78;2.58;;;;;;;;;;5029912;28;20029;-73
2023/04/02 01:58:13;;;;;;;2.50;2.30;;;;;;;;;;5023762;28;20030;-73
2023/04/02 02:00:47;;;;;;;2.38;2.17;;;;;;;;;;5029219;28;20216;-74
2023/04/02 02:03:16;;;;;;;2.55;2.35;;;;;;;;;;5010781;28;20095;-73
2023/04/02 02:05:49;;;;;;;2.20;2.00;;;;;;;;;;5010840;28;20645;-73
2023/04/02 02:08:37;;;;;;;2.80;2.40;;;;;;;;;;5020934;28;20034;-73
2023/04/02 02:11:15;;;;;;;2.70;2.50;;;;;;;;;;5027826;28;20037;-73
2023/04/02 02:13:48;;;;;;;3.58;2.83;;;;;;;;;;5030026;28;20025;-73
2023/04/02 02:16:20;;;;;;;3.05;2.75;;;;;;;;;;5022242;28;20041;-73
2023/04/02 02:18:57;;;;;;;2.92;2.63;;;;;;;;;;5026679;28;20022;-73
2023/04/02 02:21:42;;;;;;;3.00;2.65;;;;;;;;;;5021520;28;20033;-73
2023/04/02 02:24:31;;;;;;;3.03;2.72;;;;;;;;;;5023046;28;20065;-74
2023/04/02 02:27:09;;;;;;;3.13;2.70;;;;;;;;;;5026590;28;20053;-73
2023/04/02 02:29:41;;;;;;;3.83;2.50;;;;;;;;;;5025891;28;20381;-73
2023/04/02 02:32:14;;;;;;;2.83;2.47;;;;;;;;;;5027760;28;20078;-73
2023/04/02 02:34:49;;;;;;;2.65;2.45;;;;;;;;;;5028275;28;20033;-74
2023/04/02 02:37:24;;;;;;;3.45;3.05;;;;;;;;;;5029593;28;20120;-73
2023/04/02 02:39:56;;;;;;;3.42;2.83;;;;;;;;;;5024878;28;20025;-73
2023/04/02 02:42:35;;;;;;;3.42;3.13;;;;;;;;;;4698400;28;9180421;-72
2023/04/02 02:45:15;;;;;;;2.92;2.70;;;;;;;;;;5021540;28;20047;-73
2023/04/02 02:47:49;;;;;;;2.78;2.58;;;;;;;;;;5030092;28;20033;-73
2023/04/02 02:50:30;;;;;;;2.60;2.40;;;;;;;;;;5027585;28;20061;-73
2023/04/02 02:53:03;;;;;;;2.25;2.00;;;;;;;;;;5029680;28;20033;-73
2023/04/02 02:55:30;;;;;;;;;;;;;;;;;;5029740;28;20043;-73
2023/04/02 02:58:09;;;;;;;2.45;2.17;;;;;;;;;;5028576;28;20037;-73
2023/04/02 03:00:39;;;;;;;2.10;1.90;;;;;;;;;;5023680;28;20044;-73
2023/04/02 03:03:18;;;;;;;2.22;1.90;;;;;;;;;;5030122;28;20067;-73
2023/04/02 03:05:52;;;;;;;1.77;1.52;;;;;;;;;;5029909;28;20017;-73
2023/04/02 03:08:31;;;;;;;2.35;2.15;;;;;;;;;;5028604;28;20025;-73
2023/04/02 03:11:14;;;;;;;1.80;1.70;;;;;;;;;;5024154;28;20440;-73
2023/04/02 03:13:49;;;;;;;1.58;1.33;;;;;;;;;;5010825;28;20399;-72
2023/04/02 03:16:36;;;;;;;1.30;1.20;;;;;;;;;;5021192;28;20037;-72
2023/04/02 03:19:12;;;;;;;1.60;1.50;;;;;;;;;;5026705;28;20041;-72
2023/04/02 03:21:50;;;;;;;1.60;1.50;;;;;;;;;;5027925;28;20075;-72
2023/04/02 03:24:26;;;;;;;2.13;1.90;;;;;;;;;;5017811;28;20022;-72
2023/04/02 03:27:02;;;;;;;4.32;2.20;;;;;;;;;;5010108;28;20041;-72
2023/04/02 03:29:33;;;;;;;2.40;2.20;;;;;;;;;;5020711;28;20041;-72
2023/04/02 03:32:03;;;;;;;2.50;2.30;;;;;;;;;;5019208;28;20383;-72
2023/04/02 03:34:37;;;;;;;3.58;2.60;;;;;;;;;;5028259;28;20037;-72
2023/04/02 03:37:20;;;;;;;3.20;2.90;;;;;;;;;;5029430;28;20427;-72
2023/04/02 03:40:06;;;;;;;2.78;2.58;;;;;;;;;;5018845;28;20068;-73
2023/04/02 03:42:49;;;;;;;2.65;2.45;;;;;;;;;;5023893;28;20050;-73
2023/04/02 03:45:20;;;;;;;3.00;2.67;;;;;;;;;;5020072;28;20017;-73
2023/04/02 03:47:58;;;;;;;2.65;2.45;;;;;;;;;;5026760;28;20045;-73
2023/04/02 03:50:27;;;;;;;2.42;2.22;;;;;;;;;;5016963;28;20042;-73
2023/04/02 03:52:54;;;;;;;2.63;2.17;;;;;;;;;;5021370;28;20026;-73
2023/04/02 03:55:34;;;;;;;2.70;2.50;;;;;;;;;;5026738;28;20029;-73
2023/04/02 03:58:11;;;;;;;2.83;2.40;;;;;;;;;;5029720;28;20033;-73
2023/04/02 04:00:49;;;;;;;2.30;2.10;;;;;;;;;;5024052;28;20487;-73
2023/04/02 04:03:21;;;;;;;2.25;2.03;;;;;;;;;;5017734;28;20026;-73
2023/04/02 04:05:59;;;;;;;2.55;1.75;;;;;;;;;;5020605;28;20029;-72
2023/04/02 04:08:42;;;;;;;2.28;2.08;;;;;;;;;;5023382;28;20033;-73
2023/04/02 04:11:20;;;;;;;2.33;1.80;;;;;;;;;;5027018;28;20025;-72
2023/04/02 04:14:18;;;;;;;4.30;2.13;;;;;;;;;;5021765;28;20022;-73
2023/04/02 04:16:52;;;;;;;2.70;2.50;;;;;;;;;;5021971;28;20064;-72
2023/04/02 04:19:36;;;;;;;2.72;2.40;;;;;;;;;;5028908;28;20029;-73
2023/04/02 04:22:29;;;;;;;2.60;2.40;;;;;;;;;;5029295;28;20033;-72
2023/04/02 04:24:59;;;;;;;2.67;2.05;;;;;;;;;;5017657;28;20053;-72
2023/04/02 04:27:44;;;;;;;2.60;2.40;;;;;;;;;;5027465;28;20026;-72
2023/04/02 04:30:18;;;;;;;2.65;2.45;;;;;;;;;;5015763;28;20030;-73
2023/04/02 04:33:00;;;;;;;3.30;2.65;;;;;;;;;;5027902;28;20042;-72
2023/04/02 04:35:29;;;;;;;2.27;2.07;;;;;;;;;;5022882;28;20033;-72
2023/04/02 04:38:26;;;;;;;2.90;2.70;;;;;;;;;;5015930;28;20292;-72
2023/04/02 04:40:58;;;;;;;3.35;2.67;;;;;;;;;;5028263;28;20030;-72
2023/04/02 04:43:37;;;;;;;2.65;2.45;;;;;;;;;;5032335;28;20128;-72
2023/04/02 04:46:06;;;;;;;4.32;3.35;;;;;;;;;;5026327;28;20034;-72
2023/04/02 04:48:36;;;;;;;3.47;3.17;;;;;;;;;;5032374;28;20025;-72
2023/04/02 04:51:09;;;;;;;3.55;3.25;;;;;;;;;;5027990;28;20029;-72
2023/04/02 04:53:47;;;;;;;3.95;3.53;;;;;;;;;;5032341;28;20494;-72
2023/04/02 04:56:23;;;;;;;3.88;3.47;;;;;;;;;;5032148;28;20026;-72
2023/04/02 04:59:02;;;;;;;3.30;3.00;;;;;;;;;;5018179;28;20057;-72
2023/04/02 05:01:33;;;;;;;3.53;3.15;;;;;;;;;;5022102;28;20033;-72
2023/04/02 05:04:01;;;;;;;5.55;3.40;;;;;;;;;;5026197;28;20040;-72
2023/04/02 05:06:32;;;;;;;4.68;3.33;;;;;;;;;;5032533;28;20025;-72
2023/04/02 05:09:01;;;;;;;4.07;3.63;;;;;;;;;;5032295;28;20390;-72
2023/04/02 05:11:35;;;;;;;4.10;3.63;;;;;;;;;;5025987;28;20034;-72
2023/04/02 05:14:07;;;;;;;4.40;3.70;;;;;;;;;;5029611;28;20116;-72
2023/04/02 05:16:38;;;;;;;4.32;3.90;;;;;;;;;;5028218;28;20038;-72
2023/04/02 05:19:07;;;;;;;5.05;3.60;;;;;;;;;;5026261;28;20032;-72
2023/04/02 05:21:50;;;;;;;4.80;3.80;;;;;;;;;;5024493;28;20104;-72
2023/04/02 05:24:16;;;;;;;;;;;;;;;;;;5025974;28;20477;-72
2023/04/02 05:26:50;;;;;;;6.65;3.95;;;;;;;;;;5031449;28;20423;-72
2023/04/02 05:29:28;;;;;;;4.53;3.83;;;;;;;;;;5030926;28;20175;-72
2023/04/02 05:31:57;;;;;;;5.38;4.13;;;;;;;;;;5024811;28;20033;-72
2023/04/02 05:34:31;;;;;;;4.80;4.30;;;5.20;99.90;;;;;;5023538;28;20098;-72
2023/04/02 05:37:03;;;;;;;6.15;4.65;;;5.20;99.90;;;;;;5031234;28;20021;-72
2023/04/02 05:39:37;;;;;;;6.32;5.10;;;5.20;99.90;;;;;;5030859;28;20474;-72
2023/04/02 05:42:20;;;;;;;6.60;5.22;;;5.20;99.90;;;;;;5029748;28;20501;-72
2023/04/02 05:44:58;;;;;;;;;;;5.10;99.90;;;;;;5026005;28;20120;-72
2023/04/02 05:47:30;;;;;;;9.35;5.38;;;5.10;99.90;;;;;;5028950;28;19913;-71
2023/04/02 05:50:09;;;;;;;8.15;5.78;;;5.00;99.90;;;;;;5011636;28;20033;-72
2023/04/02 05:52:41;;;;;;;8.18;5.68;;;5.00;99.90;;;;;;4312284;28;10001436;-72
2023/04/02 05:55:10;;;;;;;6.90;5.22;;;5.00;99.90;;;;;;5007760;28;20228;-72
2023/04/02 05:57:50;;;;;;;6.40;5.63;;;5.00;99.90;;;;;;4999440;28;20044;-72
2023/04/02 06:00:40;;;;;;;7.80;5.97;;;5.00;99.90;;;;;;5004260;28;20025;-72
2023/04/02 06:03:22;;;;;;;9.65;6.57;;;5.00;99.90;;;;;;5013418;28;20853;-72
2023/04/02 06:05:50;;;;;;;7.88;5.90;;;5.00;99.90;;;;;;5000674;28;20039;-72
2023/04/02 06:08:31;;;;;;;9.25;6.43;;;4.90;99.90;;;;;;5007473;28;20041;-72
2023/04/02 06:11:11;;;;;;;8.98;6.20;;;4.90;99.90;;;;;;5009626;28;20044;-72
2023/04/02 06:13:38;;;;;;;7.50;5.75;;;4.90;99.90;;;;;;5010200;28;20498;-72
2023/04/02 06:16:05;;;;;;;7.53;5.68;;;4.90;99.90;;;;;;5008873;28;20037;-71
2023/04/02 06:18:35;;;;;;;8.55;5.38;;;4.80;99.90;;;;;;5003798;28;20146;-72
2023/04/02 06:21:03;;;;;;;10.18;5.60;;;4.80;99.90;;;;;;5004673;28;20426;-72
2023/04/02 06:24:03;;;;;;;8.35;5.65;;;4.80;99.90;;;;;;5002546;28;20072;-72
2023/04/02 06:26:34;;;;;;;6.88;5.18;;;4.80;99.90;;;;;;5019195;28;20035;-71
2023/04/02 06:29:13;;;;;;;10.73;5.38;;;4.70;99.90;;;;;;5017828;28;20034;-72
2023/04/02 06:31:48;;;;;;;6.60;5.13;;;4.70;99.90;;;;;;5017753;28;20021;-72
2023/04/02 06:34:20;;;;;;;6.75;5.03;;;4.70;99.90;;;;;;5014913;28;20567;-72
2023/04/02 06:36:49;;;;;;;5.80;4.65;;;4.60;99.90;;;;;;5017916;28;20120;-72
2023/04/02 06:39:21;;;;;;;6.85;5.00;;;4.60;99.90;;;;;;5011874;28;20033;-73
2023/04/02 06:41:56;;;;;;;5.30;4.03;;;4.60;99.90;;;;;;5018596;28;20112;-73
2023/04/02 06:44:26;;;;;;;8.55;4.90;;;4.60;99.90;;;;;;5017061;28;20041;-72
2023/04/02 06:47:00;;;;;;;9.75;5.50;;;4.60;99.90;;;;;;5018878;28;20768;-72
2023/04/02 06:49:34;;;;;;;9.05;5.45;;;4.60;99.90;;;;;;5016670;28;20505;-72
2023/04/02 06:52:02;;;;;;;8.18;4.72;;;4.60;99.90;;;;;;5023129;28;20108;-72
2023/04/02 06:54:29;;;;;;;9.27;5.05;;;4.50;99.90;;;;;;5020795;28;20461;-72
2023/04/02 06:56:56;;;;;;;6.22;4.78;;;4.50;99.90;;;;;;5019751;28;20666;-72
2023/04/02 06:59:23;;;;;;;6.30;4.90;;;4.50;99.90;;;;;;5016561;28;20038;-72
2023/04/02 07:01:51;;;;;;;6.45;5.30;;;4.60;99.90;;;;;;5014725;28;20092;-71
2023/04/02 07:04:18;;;;;;;7.90;4.57;;;4.60;99.90;;;;;;5018905;28;20056;-73
2023/04/02 07:06:45;;;;;;;9.52;5.03;;;4.60;99.90;;;;;;5018915;28;20560;-73
2023/04/02 07:09:12;;;;;;;7.15;4.88;;;4.60;99.90;;;;;;5017259;28;20041;-73
2023/04/02 07:11:39;;;;;;;7.25;5.18;;;4.70;99.90;;;;;;5016564;28;20572;-73
2023/04/02 07:14:08;;;;;;;7.43;4.93;;;4.70;99.90;;;;;;5011945;28;20022;-73
2023/04/02 07:16:35;;;;;;;9.98;5.10;;;4.60;99.90;;;;;;5014731;28;20056;-73
2023/04/02 07:19:03;;;;;;;7.20;5.25;;;4.70;99.90;;;;;;5017244;28;20033;-73
2023/04/02 07:21:30;;;;;;;7.80;5.90;;;4.70;99.90;;;;;;5021960;28;20018;-73
2023/04/02 07:23:57;;;;;;;8.95;5.78;;;4.70;99.90;;;;;;5016465;28;20592;-73
2023/04/02 07:26:26;;;;;;;6.45;5.18;;;4.70;99.90;;;;;;5020291;28;20112;-73
2023/04/02 07:28:56;;;;;;;7.60;5.70;;;4.70;99.90;;;;;;5016444;28;20057;-74
2023/04/02 07:31:24;;;;;;;7.60;5.80;;;4.70;99.90;;;;;;5017766;28;20975;-72
2023/04/02 07:33:52;;;;;;;8.90;6.18;;;4.70;99.90;;;;;;5019894;28;20088;-73
2023/04/02 07:36:21;;;;;;;7.68;5.00;;;4.70;99.90;;;;;;5022058;28;20034;-72
2023/04/02 07:38:51;;;;;;;6.50;5.43;;;4.70;99.90;;;;;;5022340;28;20021;-73
2023/04/02 07:41:20;;;;;;;6.53;4.85;;;;;;;;;;5018471;28;20108;-71
2023/04/02 07:43:50;;;;;;;5.85;4.45;;;;;;;;;;5021244;28;20069;-71
2023/04/02 07:46:20;;;;;;;5.72;4.43;;;;;;;;;;5020659;28;20068;-71
2023/04/02 07:48:50;;;;;;;5.72;4.50;;;;;;;;;;5029182;28;20033;-71
2023/04/02 07:51:25;;;;;;;5.82;4.00;;;;;;;;;;5015850;28;20030;-71
2023/04/02 07:53:55;;;;;;;5.25;3.83;;;;;;;;;;5024723;28;20550;-71
2023/04/02 07:56:28;;;;;;;4.60;3.72;;;;;;;;;;5024255;28;20038;-71
2023/04/02 07:58:56;;;;;;;6.13;3.90;;;;;;;;;;5025107;28;20022;-71
2023/04/02 08:01:34;;;;;;;6.18;4.57;;;;;;;;;;5022888;28;20029;-72
2023/04/02 08:04:01;;;;;;;6.55;3.97;;;;;;;;;;5022442;28;20512;-71
2023/04/02 08:06:28;;;;;;;4.40;4.00;;;;;;;;;;5025082;28;20032;-72
2023/04/02 08:08:58;;;;;;;6.88;5.20;;;;;;;;;;5024380;28;20917;-71
2023/04/02 08:11:28;;;;;;;7.80;5.28;;;;;;;;;;5028709;28;20075;-71
2023/04/02 08:13:58;;;;;;;7.90;5.05;;;;;;;;;;5025975;28;20033;-71
2023/04/02 08:16:31;;;;;;;4.70;4.03;;;;;;;;;;5027152;28;20049;-71
2023/04/02 08:18:57;;;;;;;;;;;;;;;;;;5022893;28;20030;-71
2023/04/02 08:21:31;;;;;;;4.40;3.58;;;;;;;;;;5028506;28;19962;-71
2023/04/02 08:24:03;;;;;;;8.23;3.90;;;;;;;;;;5040142;28;20529;-71
2023/04/02 08:26:35;;;;;;;4.65;3.80;;;;;;;;;;5032047;28;20490;-71
2023/04/02 08:29:07;;;;;;;4.88;3.63;;;;;;;;;;5020559;28;20041;-71
2023/04/02 08:31:37;;;;;;;5.78;3.90;;;;;;;;;;5023212;28;20398;-71
2023/04/02 08:34:06;;;;;;;4.80;4.10;;;;;;;;;;5032272;28;20048;-71
2023/04/02 08:36:40;;;;;;;5.30;4.40;;;;;;;;;;5032462;28;20111;-71
2023/04/02 08:39:12;;;;;;;5.13;3.97;;;;;;;;;;5032555;28;20393;-71
2023/04/02 08:41:46;;;;;;;4.90;4.15;;;;;;;;;;5023843;28;20121;-71
2023/04/02 08:44:32;;;;;;;4.70;3.53;;;;;;;;;;5029854;28;20053;-71
2023/04/02 08:47:10;;;;;;;6.40;3.67;;;;;;;;;;5026635;28;20259;-71
2023/04/02 08:49:44;;;;;;;5.55;4.00;;;;;;;;;;5032406;28;20104;-71
2023/04/02 08:52:24;;;;;;;4.40;4.00;;;;;;;;;;5012899;28;20037;-71
2023/04/02 08:54:55;;;;;;;8.63;4.00;;;;;;;;;;5013099;28;20037;-71
2023/04/02 08:57:26;;;;;;;7.72;4.20;;;;;;;;;;5024209;28;20041;-71
2023/04/02 08:59:58;;;;;;;5.70;4.15;;;;;;;;;;5030164;28;20021;-71
2023/04/02 09:02:27;;;;;;;6.32;4.13;;;;;;;;;;5030198;28;20103;-71
2023/04/02 09:04:56;;;;;;;8.93;4.88;;;;;;;;;;5030304;28;20470;-71
2023/04/02 09:07:27;;;;;;;5.30;4.20;;;;;;;;;;5023587;28;20099;-71
2023/04/02 09:09:55;;;;;;;6.65;4.60;;;;;;;;;;5023923;28;20060;-71
2023/04/02 09:12:34;;;;;;;7.28;5.25;;;;;;;;;;5024520;28;20045;-71
2023/04/02 09:15:13;;;;;;;5.65;4.78;;;;;;;;;;5031827;28;20037;-71
2023/04/02 09:17:44;;;;;;;6.03;4.63;;;;;;;;;;5019782;28;20061;-71
2023/04/02 09:20:20;;;;;;;7.50;4.35;;;;;;;;;;5028815;28;20129;-71
2023/04/02 09:22:51;;;;;;;5.72;4.38;;;;;;;;;;5031825;28;20040;-72
2023/04/02 09:25:24;;;;;;;4.68;3.50;;;;;;;;;;5015710;28;20037;-71
2023/04/02 09:27:53;;;;;;;4.05;3.00;;;;;;;;;;5025548;28;20046;-71
2023/04/02 09:30:38;;;;;;;3.30;3.00;;;;;;;;;;5024311;28;20033;-71
2023/04/02 09:33:12;;;;;;;4.07;2.80;;;;;;;;;;5017131;28;20063;-71
2023/04/02 09:35:53;;;;;;;5.18;2.97;;;;;;;;;;5027427;28;20023;-71
2023/04/02 09:38:27;;;;;;;3.92;2.65;;;;;;;;;;5023105;28;20474;-72
2023/04/02 09:40:56;;;;;;;4.75;3.17;;;;;;;;;;5020720;28;20029;-71
2023/04/02 09:43:27;;;;;;;3.90;3.03;;;;;;;;;;5026877;28;20049;-71
2023/04/02 09:45:59;;;;;;;4.30;3.15;;;;;;;;;;5026422;28;20025;-71
2023/04/02 09:48:31;;;;;;;4.88;3.13;;;;;;;;;;5020123;28;20061;-71
2023/04/02 09:51:06;;;;;;;6.18;3.08;;;;;;;;;;5018177;28;20036;-71
2023/04/02 09:53:32;;;;;;;4.35;3.40;;;;;;;;;;5018260;28;20120;-71
2023/04/02 09:56:08;;;;;;;5.30;3.55;;;;;;;;;;5029593;28;20041;-71
2023/04/02 09:58:39;;;;;;;5.07;3.60;;;;;;;;;;5026054;28;20398;-71
2023/04/02 10:01:24;;;;;;;6.25;3.80;;;;;;;;;;5029450;28;20057;-71
2023/04/02 10:03:54;;;;;;;7.90;3.78;;;;;;;;;;5022783;28;20481;-72
2023/04/02 10:06:24;;;;;;;5.63;3.92;;;;;;;;;;5030769;28;20029;-72
2023/04/02 10:08:53;;;;;;;5.07;4.10;;;;;;;;;;5027420;28;20041;-71
2023/04/02 10:11:23;;;;;;;6.28;3.30;;;;;;;;;;5028887;28;20029;-72
2023/04/02 10:14:09;;;;;;;6.13;3.75;;;;;;;;;;5021510;28;20053;-72
2023/04/02 10:16:45;;;;;;;5.60;3.63;;;;;;;;;;5022669;28;20054;-72
2023/04/02 10:19:33;;;;;;;6.82;3.53;;;;;;;;;;5025722;28;20029;-72
2023/04/02 10:22:03;;;;;;;5.28;3.45;;;;;;;;;;5028176;28;20025;-72
2023/04/02 10:24:31;;;;;;;6.38;3.75;;;;;;;;;;5030624;28;20032;-72
2023/04/02 10:27:08;;;;;;;7.15;4.07;;;;;;;;;;5026578;28;20037;-72
2023/04/02 10:29:42;;;;;;;7.90;4.18;;;;;;;;;;5028083;28;20040;-72
2023/04/02 10:32:09;;;;;;;5.65;3.33;;;;;;;;;;5028667;28;20126;-72
2023/04/02 10:34:46;;;;;;;5.47;3.63;;;;;;;;;;5027587;28;20045;-72
2023/04/02 10:37:48;;;;;;;4.75;3.22;;;;;;;;;;5022590;28;20061;-73
2023/04/02 10:40:37;;;;;;;6.28;3.50;;;;;;;;;;4960985;28;20054;-73
2023/04/02 10:43:09;;;;;;;8.63;3.70;;;;;;;;;;5020039;28;20119;-72
2023/04/02 10:45:43;;;;;;;5.53;3.90;;;;;;;;;;5024229;28;20030;-72
2023/04/02 10:48:20;;;;;;;6.60;3.55;;;;;;;;;;5020788;28;20041;-72
2023/04/02 10:50:53;;;;;;;5.60;3.05;;;;;;;;;;5020494;28;20026;-72
2023/04/02 10:53:20;;;;;;;;;;;;;;;;;;5026353;28;20121;-72
2023/04/02 10:56:02;;;;;;;7.13;3.30;;;;;;;;;;5023473;28;19916;-73
2023/04/02 10:58:36;;;;;;;4.63;3.33;;;;;;;;;;5023357;28;20501;-72
2023/04/02 11:01:05;;;;;;;6.22;3.30;;;;;;;;;;5019671;28;20038;-74
2023/04/02 11:03:40;;;;;;;4.72;2.78;;;;;;;;;;5020141;28;20116;-72
2023/04/02 11:06:15;;;;;;;5.43;3.00;;;;;;;;;;5021593;28;20049;-72
2023/04/02 11:08:47;;;;;;;4.93;2.40;;;;;;;;;;5023403;28;20057;-72
2023/04/02 11:11:35;;;;;;;4.15;2.38;;;;;;;;;;5025164;28;20498;-72
2023/04/02 11:14:11;;;;;;;4.25;2.58;;;;;;;;;;5015367;28;20072;-72
2023/04/02 11:16:44;;;;;;;4.95;2.58;;;;;;;;;;5025841;28;20034;-72
2023/04/02 11:19:16;;;;;;;5.32;2.42;;;;;;;;;;5020306;28;20573;-73
2023/04/02 11:21:54;;;;;;;4.35;2.60;;;;;;;;;;5029859;28;20025;-72
2023/04/02 11:24:35;;;;;;;4.68;2.45;;;;;;;;;;5019130;28;20061;-73
2023/04/02 11:27:14;;;;;;;3.90;2.47;;;;;;;;;;5017871;28;20095;-73
2023/04/02 11:29:54;;;;;;;3.25;2.47;;;;;;;;;;5020628;28;20036;-72
2023/04/02 11:32:30;;;;;;;4.97;2.50;;;;;;;;;;5023532;28;20037;-73
2023/04/02 11:35:01;;;;;;;4.93;2.42;;;;;;;;;;5026980;28;20036;-72
2023/04/02 11:37:41;;;;;;;6.18;2.60;;;;;;;;;;5025339;28;20095;-72
2023/04/02 11:40:14;;;;;;;6.07;2.50;;;;;;;;;;5027018;28;20037;-73
2023/04/02 11:42:43;;;;;;;3.08;2.20;;;;;;;;;;5021254;28;20119;-73
2023/04/02 11:45:30;;;;;;;4.07;2.40;;;;;;;;;;5019011;28;20056;-73
2023/04/02 11:48:04;;;;;;;4.72;2.60;;;;;;;;;;5024253;28;20030;-73
2023/04/02 11:50:41;;;;;;;6.88;2.60;;;;;;;;;;5029365;28;20138;-73
2023/04/02 11:53:10;;;;;;;7.55;2.60;;;;;;;;;;5025153;28;20656;-73
2023/04/02 11:56:05;;;;;;;6.00;2.55;;;;;;;;;;5027345;28;20111;-72
2023/04/02 11:58:38;;;;;;;5.50;2.58;;;;;;;;;;5018633;28;20029;-71
2023/04/02 12:01:07;;;;;;;4.05;2.47;;;;;;;;;;5023489;28;20116;-72
2023/04/02 12:03:53;;;;;;;4.82;2.40;;;;;;;;;;5025450;28;20049;-72
2023/04/02 12:06:29;;;;;;;5.07;2.20;;;;;;;;;;5027701;28;20109;-72
2023/04/02 12:09:10;;;;;;;7.85;2.58;;;;;;;;;;5031084;28;20061;-72
2023/04/02 12:11:37;;;;;;;3.50;2.00;;;;;;;;;;5014398;28;20401;-73
2023/04/02 12:14:28;;;;;;;7.45;2.08;;;;;;;;;;4677157;28;10000584;-72
2023/04/02 12:17:01;;;;;;;4.60;1.85;;;;;;;;;;5020409;28;20140;-71
2023/04/02 12:19:29;;;;;;;3.75;2.20;;;;;;;;;;5026863;28;20030;-72
2023/04/02 12:21:58;;;;;;;5.88;2.35;;;;;;;;;;5025627;28;20029;-71
2023/04/02 12:24:32;;;;;;;4.35;2.28;;;5.70;99.90;;;;;;5025081;28;20513;-71
2023/04/02 12:27:23;;;;;;;4.75;2.20;;;5.80;99.90;;;;;;5013831;28;20044;-73
2023/04/02 12:29:51;;;;;;;2.97;1.83;;;5.80;99.90;;;;;;5024614;28;20040;-71
2023/04/02 12:32:33;;;;;;;3.30;2.22;;;5.80;99.90;;;;;;5019785;28;20060;-72
2023/04/02 12:35:07;;;;;;;4.10;2.17;;;5.80;99.90;;;;;;5024031;28;20036;-72
2023/04/02 12:37:40;;;;;;;4.88;2.30;;;5.90;99.90;;;;;;5022587;28;20072;-72
2023/04/02 12:40:15;;;;;;;;;;;6.00;99.90;;;;;;5014158;28;20065;-73
2023/04/02 12:42:45;;;;;;;5.03;2.15;;;5.90;99.90;;;;;;5027141;28;19909;-73
2023/04/02 12:45:22;;;;;;;5.43;2.53;;;5.90;99.90;;;;;;5022584;28;20460;-72
2023/04/02 12:47:55;;;;;;;5.20;2.33;;;6.00;99.90;;;;;;5017797;28;20036;-72
2023/04/02 12:50:28;;;;;;;5.20;2.45;;;5.90;99.90;;;;;;5020486;28;20488;-73
2023/04/02 12:52:57;;;;;;;4.65;2.17;;;5.90;99.90;;;;;;5017851;28;20037;-74
2023/04/02 12:55:25;;;;;;;4.07;2.30;;;6.10;99.90;;;;;;5021136;28;20029;-76
2023/04/02 12:57:56;;;;;;;4.47;2.10;;;6.00;99.90;;;;;;5026464;28;20036;-75
2023/04/02 13:00:22;;;;;;;5.55;2.50;;;6.00;99.90;;;;;;5022164;28;20040;-75
2023/04/02 13:03:06;;;;;;;4.80;2.22;;;6.10;99.90;;;;;;5029197;28;20398;-76
2023/04/02 13:05:54;;;;;;;3.05;1.90;;;6.20;99.90;;;;;;5020712;28;20022;-74
2023/04/02 13:08:24;;;;;;;3.63;2.40;;;6.30;99.90;;;;;;5026421;28;20069;-75
2023/04/02 13:11:01;;;;;;;3.30;2.08;;;6.50;99.90;;;;;;5021961;28;20274;-74
2023/04/02 13:13:38;;;;;;;3.58;1.90;;;6.60;99.90;;;;;;5026884;28;20557;-74
2023/04/02 13:16:24;;;;;;;3.05;1.67;;;6.70;99.90;;;;;;5022312;28;20112;-74
2023/04/02 13:19:13;;;;;;;5.30;1.90;;;6.80;99.90;;;;;;5021909;28;20029;-74
2023/04/02 13:21:47;;;;;;;5.22;2.10;;;6.70;99.90;;;;;;5021270;28;20040;-73
2023/04/02 13:24:25;;;;;;;4.18;2.20;;;6.60;99.90;;;;;;5022062;28;20029;-72
2023/04/02 13:27:00;;;;;;;6.07;2.10;;;6.70;99.90;;;;;;5015742;28;20840;-73
2023/04/02 13:29:30;;;;;;;4.32;2.25;;;6.70;99.90;;;;;;5020077;28;20041;-74
2023/04/02 13:32:04;;;;;;;3.20;2.17;;;6.80;99.90;;;;;;5026069;28;20047;-73
2023/04/02 13:34:30;;;;;;;7.15;2.10;;;6.80;99.90;;;;;;5023841;28;20171;-75
2023/04/02 13:36:59;;;;;;;5.93;2.13;;;7.00;99.90;;;;;;5019811;28;20048;-74
2023/04/02 13:39:25;;;;;;;2.70;1.77;;;6.90;99.90;;;;;;5023169;28;20029;-75
2023/04/02 13:42:00;;;;;;;4.45;2.00;;;6.80;99.90;;;;;;5021790;28;21240;-75
2023/04/02 13:44:36;;;;;;;3.45;2.40;;;6.70;99.90;;;;;;5020568;28;20539;-75
2023/04/02 13:47:05;;;;;;;4.75;2.13;;;6.70;99.90;;;;;;5019270;28;20501;-74
2023/04/02 13:49:32;;;;;;;3.25;2.10;;;6.70;99.90;;;;;;5026978;28;20039;-73
2023/04/02 13:52:07;;;;;;;3.75;2.30;;;6.70;99.90;;;;;;5019279;28;20029;-74
2023/04/02 13:54:48;;;;;;;7.57;2.08;;;6.60;99.90;;;;;;5021849;28;20025;-76
2023/04/02 13:57:20;;;;;;;4.18;2.08;;;6.60;99.90;;;;;;5021850;28;20116;-74
2023/04/02 13:59:52;;;;;;;2.88;1.50;;;6.60;99.90;;;;;;5026188;28;20531;-74
2023/04/02 14:02:33;;;;;;;3.58;1.88;;;6.60;99.90;;;;;;5018690;28;20030;-74
2023/04/02 14:05:35;;;;;;;7.15;2.10;;;6.70;99.90;;;;;;5018762;28;20076;-74
2023/04/02 14:08:35;;;;;;;6.13;2.13;;;6.80;99.90;;;;;;5028096;28;20048;-75
2023/04/02 14:11:34;;;;;;;3.05;1.60;;;7.00;99.90;;;;;;5015015;28;20038;-74
2023/04/02 14:14:31;;;;;;;3.00;1.52;;;6.90;99.90;;;;;;5018113;28;20026;-74
2023/04/02 14:17:08;;;;;;;4.80;2.00;;;6.90;99.90;;;;;;5019781;28;20119;-76
2023/04/02 14:20:00;;;;;;;5.32;2.13;;;6.90;99.90;;;;;;5020844;28;20029;-75
2023/04/02 14:22:29;;;;;;;3.95;1.90;;;6.80;99.90;;;;;;5014685;28;20060;-76
2023/04/02 14:25:03;;;;;;;4.65;1.83;;;6.70;99.90;;;;;;5017873;28;20319;-75
2023/04/02 14:27:39;;;;;;;3.92;1.80;;;6.60;99.90;;;;;;5020352;28;20029;-75
2023/04/02 14:30:13;;;;;;;4.13;2.15;;;6.60;99.90;;;;;;5019946;28;20083;-75
2023/04/02 14:32:45;;;;;;;6.55;2.00;;;6.50;99.90;;;;;;5017429;28;20041;-74
2023/04/02 14:35:36;;;;;;;3.50;1.88;;;6.50;99.90;;;;;;5023541;28;20423;-74
2023/04/02 14:38:08;;;;;;;4.38;1.90;;;6.40;99.90;;;;;;5014190;28;20354;-77
2023/04/02 14:40:50;;;;;;;4.13;1.70;;;6.30;99.90;;;;;;5024405;28;20545;-75
2023/04/02 14:43:26;;;;;;;3.92;2.10;;;6.10;99.90;;;;;;5021250;28;20103;-75
2023/04/02 14:45:58;;;;;;;4.97;1.90;;;6.20;99.90;;;;;;5016325;28;20417;-76
2023/04/02 14:48:31;;;;;;;1.90;1.40;;;6.30;99.90;;;;;;5017949;28;20033;-75
2023/04/02 14:51:22;;;;;;;5.10;2.00;;;6.30;99.90;;;;;;5013250;28;20284;-75
2023/04/02 14:54:30;;;;;;;5.00;2.00;;;6.40;99.90;;;;;;5017395;28;20501;-75